sensor_id;sensor_type;location;lat;lon;timestamp;pressure;altitude;pressure_sealevel;temperature
27986;BMP280;15453;53.692;10.168;2022-10-03T00:01:42;101682.44;;;15.65
27986;BMP280;15453;53.692;10.168;2022-10-03T00:15:09;101696.94;;;15.55
27986;BMP280;15453;53.692;10.168;2022-10-03T00:22:51;101707.16;;;15.55
27986;BMP280;15453;53.692;10.168;2022-10-03T00:25:36;101708.81;;;15.56
27986;BMP280;15453;53.692;10.168;2022-10-03T00:28:07;101710.81;;;15.60
27986;BMP280;15453;53.692;10.168;2022-10-03T00:36:03;101707.19;;;15.60
27986;BMP280;15453;53.692;10.168;2022-10-03T00:38:57;101703.63;;;15.59
27986;BMP280;15453;53.692;10.168;2022-10-03T00:41:33;101710.56;;;15.62
27986;BMP280;15453;53.692;10.168;2022-10-03T00:53:09;101716.13;;;15.67
27986;BMP280;15453;53.692;10.168;2022-10-03T00:58:55;101711.72;;;15.66
27986;BMP280;15453;53.692;10.168;2022-10-03T01:01:32;101716.97;;;15.67
27986;BMP280;15453;53.692;10.168;2022-10-03T01:04:06;101719.47;;;15.69
27986;BMP280;15453;53.692;10.168;2022-10-03T01:06:45;101719.47;;;15.69
27986;BMP280;15453;53.692;10.168;2022-10-03T01:20:09;101722.69;;;15.61
27986;BMP280;15453;53.692;10.168;2022-10-03T01:25:41;101726.28;;;15.61
27986;BMP280;15453;53.692;10.168;2022-10-03T01:28:36;101732.06;;;15.60
27986;BMP280;15453;53.692;10.168;2022-10-03T01:31:41;101733.16;;;15.59
27986;BMP280;15453;53.692;10.168;2022-10-03T01:34:23;101740.34;;;15.60
27986;BMP280;15453;53.692;10.168;2022-10-03T01:37:04;101736.50;;;15.61
27986;BMP280;15453;53.692;10.168;2022-10-03T01:45:07;101737.03;;;15.58
27986;BMP280;15453;53.692;10.168;2022-10-03T01:47:52;101734.25;;;15.58
27986;BMP280;15453;53.692;10.168;2022-10-03T01:53:45;101743.91;;;15.55
27986;BMP280;15453;53.692;10.168;2022-10-03T01:58:48;101754.88;;;15.50
27986;BMP280;15453;53.692;10.168;2022-10-03T02:01:35;101752.38;;;15.49
27986;BMP280;15453;53.692;10.168;2022-10-03T02:04:27;101758.66;;;15.44
27986;BMP280;15453;53.692;10.168;2022-10-03T02:07:12;101763.63;;;15.42
27986;BMP280;15453;53.692;10.168;2022-10-03T02:10:11;101767.72;;;15.40
27986;BMP280;15453;53.692;10.168;2022-10-03T02:12:52;101774.31;;;15.39
27986;BMP280;15453;53.692;10.168;2022-10-03T02:15:40;101772.09;;;15.36
27986;BMP280;15453;53.692;10.168;2022-10-03T02:20:44;101770.66;;;15.33
27986;BMP280;15453;53.692;10.168;2022-10-03T02:29:02;101777.41;;;15.26
27986;BMP280;15453;53.692;10.168;2022-10-03T02:32:50;101774.91;;;15.24
27986;BMP280;15453;53.692;10.168;2022-10-03T02:35:04;101786.47;;;15.21
27986;BMP280;15453;53.692;10.168;2022-10-03T02:37:53;101789.25;;;15.21
27986;BMP280;15453;53.692;10.168;2022-10-03T02:46:09;101799.94;;;15.18
27986;BMP280;15453;53.692;10.168;2022-10-03T02:48:58;101804.03;;;15.15
27986;BMP280;15453;53.692;10.168;2022-10-03T02:57:15;101806.97;;;15.09
27986;BMP280;15453;53.692;10.168;2022-10-03T03:00:13;101811.94;;;15.07
27986;BMP280;15453;53.692;10.168;2022-10-03T03:05:43;101814.34;;;15.03
27986;BMP280;15453;53.692;10.168;2022-10-03T03:08:40;101817.88;;;14.99
27986;BMP280;15453;53.692;10.168;2022-10-03T03:16:55;101825.56;;;14.97
27986;BMP280;15453;53.692;10.168;2022-10-03T03:19:42;101828.56;;;14.95
27986;BMP280;15453;53.692;10.168;2022-10-03T03:22:29;101822.47;;;14.93
27986;BMP280;15453;53.692;10.168;2022-10-03T03:30:56;101824.31;;;14.88
27986;BMP280;15453;53.692;10.168;2022-10-03T03:36:24;101815.19;;;14.87
27986;BMP280;15453;53.692;10.168;2022-10-03T03:38:58;101825.97;;;14.89
27986;BMP280;15453;53.692;10.168;2022-10-03T03:41:35;101828.97;;;14.87
27986;BMP280;15453;53.692;10.168;2022-10-03T03:44:19;101827.56;;;14.85
27986;BMP280;15453;53.692;10.168;2022-10-03T03:47:07;101835.59;;;14.86
27986;BMP280;15453;53.692;10.168;2022-10-03T03:53:15;101837.41;;;14.81
27986;BMP280;15453;53.692;10.168;2022-10-03T03:56:26;101837.41;;;14.81
27986;BMP280;15453;53.692;10.168;2022-10-03T04:02:14;101830.41;;;14.73
27986;BMP280;15453;53.692;10.168;2022-10-03T04:10:11;101836.69;;;14.69
27986;BMP280;15453;53.692;10.168;2022-10-03T04:12:54;101845.22;;;14.67
27986;BMP280;15453;53.692;10.168;2022-10-03T04:15:33;101844.38;;;14.67
27986;BMP280;15453;53.692;10.168;2022-10-03T04:18:13;101850.72;;;14.67
27986;BMP280;15453;53.692;10.168;2022-10-03T04:26:20;101855.06;;;14.63
27986;BMP280;15453;53.692;10.168;2022-10-03T04:32:12;101866.34;;;14.62
27986;BMP280;15453;53.692;10.168;2022-10-03T04:38:00;101861.00;;;14.55
27986;BMP280;15453;53.692;10.168;2022-10-03T04:43:23;101861.22;;;14.54
27986;BMP280;15453;53.692;10.168;2022-10-03T04:48:47;101864.47;;;14.51
27986;BMP280;15453;53.692;10.168;2022-10-03T04:51:23;101855.03;;;14.47
27986;BMP280;15453;53.692;10.168;2022-10-03T04:54:02;101862.47;;;14.46
27986;BMP280;15453;53.692;10.168;2022-10-03T04:59:40;101868.97;;;14.40
27986;BMP280;15453;53.692;10.168;2022-10-03T05:05:30;101862.50;;;14.35
27986;BMP280;15453;53.692;10.168;2022-10-03T05:08:13;101871.53;;;14.30
27986;BMP280;15453;53.692;10.168;2022-10-03T05:10:55;101880.38;;;14.32
27986;BMP280;15453;53.692;10.168;2022-10-03T05:16:22;101876.97;;;14.25
27986;BMP280;15453;53.692;10.168;2022-10-03T05:21:49;101875.50;;;14.23
27986;BMP280;15453;53.692;10.168;2022-10-03T05:27:12;101886.41;;;14.18
27986;BMP280;15453;53.692;10.168;2022-10-03T05:29:50;101890.25;;;14.17
27986;BMP280;15453;53.692;10.168;2022-10-03T05:32:41;101893.00;;;14.17
27986;BMP280;15453;53.692;10.168;2022-10-03T05:40:31;101905.34;;;14.14
27986;BMP280;15453;53.692;10.168;2022-10-03T05:43:25;101905.34;;;14.14
27986;BMP280;15453;53.692;10.168;2022-10-03T05:51:53;101923.56;;;14.15
27986;BMP280;15453;53.692;10.168;2022-10-03T05:57:17;101920.22;;;14.13
27986;BMP280;15453;53.692;10.168;2022-10-03T06:00:00;101917.47;;;14.13
27986;BMP280;15453;53.692;10.168;2022-10-03T06:08:41;101919.88;;;14.21
27986;BMP280;15453;53.692;10.168;2022-10-03T06:17:03;101918.97;;;14.32
27986;BMP280;15453;53.692;10.168;2022-10-03T06:19:48;101919.66;;;14.39
27986;BMP280;15453;53.692;10.168;2022-10-03T06:22:34;101915.34;;;14.43
27986;BMP280;15453;53.692;10.168;2022-10-03T06:25:28;101923.94;;;14.47
27986;BMP280;15453;53.692;10.168;2022-10-03T06:34:07;101921.72;;;14.60
27986;BMP280;15453;53.692;10.168;2022-10-03T06:36:46;101932.28;;;14.63
27986;BMP280;15453;53.692;10.168;2022-10-03T06:42:35;101944.34;;;14.74
27986;BMP280;15453;53.692;10.168;2022-10-03T06:48:19;101945.84;;;14.81
27986;BMP280;15453;53.692;10.168;2022-10-03T07:00:00;101957.25;;;15.01
27986;BMP280;15453;53.692;10.168;2022-10-03T07:05:40;101951.72;;;15.01
27986;BMP280;15453;53.692;10.168;2022-10-03T07:19:21;101945.72;;;15.21
27986;BMP280;15453;53.692;10.168;2022-10-03T07:22:14;101945.22;;;15.24
27986;BMP280;15453;53.692;10.168;2022-10-03T07:25:12;101957.44;;;15.28
27986;BMP280;15453;53.692;10.168;2022-10-03T07:30:58;101960.38;;;15.38
27986;BMP280;15453;53.692;10.168;2022-10-03T07:34:05;101967.31;;;15.40
27986;BMP280;15453;53.692;10.168;2022-10-03T07:39:59;101971.44;;;15.54
27986;BMP280;15453;53.692;10.168;2022-10-03T07:45:44;101985.56;;;15.58
27986;BMP280;15453;53.692;10.168;2022-10-03T07:48:46;101981.22;;;15.62
27986;BMP280;15453;53.692;10.168;2022-10-03T07:51:21;101988.16;;;15.64
27986;BMP280;15453;53.692;10.168;2022-10-03T07:57:06;101987.47;;;15.74
27986;BMP280;15453;53.692;10.168;2022-10-03T07:59:47;101988.41;;;15.79
27986;BMP280;15453;53.692;10.168;2022-10-03T08:02:46;101985.44;;;15.86
27986;BMP280;15453;53.692;10.168;2022-10-03T08:05:30;101983.00;;;15.89
27986;BMP280;15453;53.692;10.168;2022-10-03T08:08:42;101991.09;;;15.96
27986;BMP280;15453;53.692;10.168;2022-10-03T08:17:00;101996.97;;;16.21
27986;BMP280;15453;53.692;10.168;2022-10-03T08:19:44;101991.22;;;16.22
27986;BMP280;15453;53.692;10.168;2022-10-03T08:22:30;101992.69;;;16.30
27986;BMP280;15453;53.692;10.168;2022-10-03T08:30:19;102001.28;;;16.50
27986;BMP280;15453;53.692;10.168;2022-10-03T08:55:40;102005.03;;;17.13
27986;BMP280;15453;53.692;10.168;2022-10-03T08:58:33;102003.97;;;17.19
27986;BMP280;15453;53.692;10.168;2022-10-03T09:04:37;101997.72;;;17.34
27986;BMP280;15453;53.692;10.168;2022-10-03T09:27:24;102005.78;;;17.67
27986;BMP280;15453;53.692;10.168;2022-10-03T09:30:54;102006.94;;;17.71
27986;BMP280;15453;53.692;10.168;2022-10-03T09:36:05;102017.53;;;17.79
27986;BMP280;15453;53.692;10.168;2022-10-03T09:38:39;102016.75;;;17.84
27986;BMP280;15453;53.692;10.168;2022-10-03T09:47:04;102010.13;;;17.95
27986;BMP280;15453;53.692;10.168;2022-10-03T09:50:23;102009.38;;;18.04
27986;BMP280;15453;53.692;10.168;2022-10-03T09:53:22;102010.25;;;18.10
27986;BMP280;15453;53.692;10.168;2022-10-03T09:56:19;102017.47;;;18.16
27986;BMP280;15453;53.692;10.168;2022-10-03T10:02:08;102017.84;;;18.29
27986;BMP280;15453;53.692;10.168;2022-10-03T10:14:07;102001.56;;;18.43
27986;BMP280;15453;53.692;10.168;2022-10-03T10:16:53;101999.69;;;18.53
27986;BMP280;15453;53.692;10.168;2022-10-03T10:19:44;101996.66;;;18.60
27986;BMP280;15453;53.692;10.168;2022-10-03T10:22:32;102005.56;;;18.67
27986;BMP280;15453;53.692;10.168;2022-10-03T10:25:30;102000.88;;;18.77
27986;BMP280;15453;53.692;10.168;2022-10-03T10:28:10;101998.09;;;18.82
27986;BMP280;15453;53.692;10.168;2022-10-03T10:37:04;101986.47;;;19.05
27986;BMP280;15453;53.692;10.168;2022-10-03T11:02:51;101984.88;;;19.29
27986;BMP280;15453;53.692;10.168;2022-10-03T11:05:35;101988.50;;;19.30
27986;BMP280;15453;53.692;10.168;2022-10-03T11:08:35;101980.72;;;19.32
27986;BMP280;15453;53.692;10.168;2022-10-03T11:11:37;101982.38;;;19.33
27986;BMP280;15453;53.692;10.168;2022-10-03T11:20:38;101983.47;;;19.37
27986;BMP280;15453;53.692;10.168;2022-10-03T11:23:49;101991.28;;;19.40
27986;BMP280;15453;53.692;10.168;2022-10-03T11:26:48;101994.03;;;19.40
27986;BMP280;15453;53.692;10.168;2022-10-03T11:36:01;101994.88;;;19.60
27986;BMP280;15453;53.692;10.168;2022-10-03T11:38:49;101987.38;;;19.76
27986;BMP280;15453;53.692;10.168;2022-10-03T11:41:50;101982.63;;;19.86
27986;BMP280;15453;53.692;10.168;2022-10-03T11:46:54;101988.69;;;20.08
27986;BMP280;15453;53.692;10.168;2022-10-03T11:54:48;101984.25;;;20.07
27986;BMP280;15453;53.692;10.168;2022-10-03T11:57:27;101994.00;;;20.05
27986;BMP280;15453;53.692;10.168;2022-10-03T12:00:18;101991.19;;;20.00
27986;BMP280;15453;53.692;10.168;2022-10-03T12:08:24;101988.44;;;19.90
27986;BMP280;15453;53.692;10.168;2022-10-03T12:11:22;101985.69;;;19.85
27986;BMP280;15453;53.692;10.168;2022-10-03T12:19:33;101994.00;;;19.75
27986;BMP280;15453;53.692;10.168;2022-10-03T12:22:07;101992.94;;;19.76
27986;BMP280;15453;53.692;10.168;2022-10-03T12:24:36;101991.53;;;19.78
27986;BMP280;15453;53.692;10.168;2022-10-03T12:27:21;101993.75;;;19.81
27986;BMP280;15453;53.692;10.168;2022-10-03T12:30:02;101985.41;;;19.81
27986;BMP280;15453;53.692;10.168;2022-10-03T12:32:47;101994.28;;;19.83
27986;BMP280;15453;53.692;10.168;2022-10-03T12:35:39;102001.50;;;19.84
27986;BMP280;15453;53.692;10.168;2022-10-03T12:41:22;101991.25;;;19.80
27986;BMP280;15453;53.692;10.168;2022-10-03T12:44:15;101997.63;;;19.80
27986;BMP280;15453;53.692;10.168;2022-10-03T12:49:36;102001.53;;;19.79
27986;BMP280;15453;53.692;10.168;2022-10-03T12:52:27;102007.94;;;19.80
27986;BMP280;15453;53.692;10.168;2022-10-03T12:55:11;102000.41;;;19.80
27986;BMP280;15453;53.692;10.168;2022-10-03T13:06:23;102002.63;;;19.88
27986;BMP280;15453;53.692;10.168;2022-10-03T13:11:38;102003.47;;;19.94
27986;BMP280;15453;53.692;10.168;2022-10-03T13:14:29;101992.59;;;19.92
27986;BMP280;15453;53.692;10.168;2022-10-03T13:17:03;101999.56;;;19.90
27986;BMP280;15453;53.692;10.168;2022-10-03T13:19:53;102004.00;;;19.91
27986;BMP280;15453;53.692;10.168;2022-10-03T13:22:33;102004.00;;;19.91
27986;BMP280;15453;53.692;10.168;2022-10-03T13:25:23;102004.59;;;19.88
27986;BMP280;15453;53.692;10.168;2022-10-03T13:28:03;101995.94;;;19.89
27986;BMP280;15453;53.692;10.168;2022-10-03T13:30:31;101996.50;;;19.91
27986;BMP280;15453;53.692;10.168;2022-10-03T13:35:39;101991.47;;;19.93
27986;BMP280;15453;53.692;10.168;2022-10-03T13:39:21;101989.28;;;19.90
27986;BMP280;15453;53.692;10.168;2022-10-03T13:44:04;101996.50;;;19.91
27986;BMP280;15453;53.692;10.168;2022-10-03T13:49:32;101993.47;;;19.88
27986;BMP280;15453;53.692;10.168;2022-10-03T13:55:08;101994.28;;;19.88
27986;BMP280;15453;53.692;10.168;2022-10-03T13:57:50;101999.00;;;19.83
27986;BMP280;15453;53.692;10.168;2022-10-03T14:00:22;101998.47;;;19.86
27986;BMP280;15453;53.692;10.168;2022-10-03T14:05:52;101992.38;;;19.84
27986;BMP280;15453;53.692;10.168;2022-10-03T14:08:30;102000.97;;;19.82
27986;BMP280;15453;53.692;10.168;2022-10-03T14:16:31;101999.59;;;19.85
27986;BMP280;15453;53.692;10.168;2022-10-03T14:27:04;101984.03;;;19.84
27986;BMP280;15453;53.692;10.168;2022-10-03T14:30:11;101996.81;;;19.85
27986;BMP280;15453;53.692;10.168;2022-10-03T14:35:38;101985.97;;;19.83
27986;BMP280;15453;53.692;10.168;2022-10-03T14:38:19;101992.38;;;19.84
27986;BMP280;15453;53.692;10.168;2022-10-03T14:40:56;101988.75;;;19.78
27986;BMP280;15453;53.692;10.168;2022-10-03T14:44:00;101985.13;;;19.78
27986;BMP280;15453;53.692;10.168;2022-10-03T14:46:29;101985.13;;;19.78
27986;BMP280;15453;53.692;10.168;2022-10-03T14:48:58;101982.91;;;19.75
27986;BMP280;15453;53.692;10.168;2022-10-03T14:51:29;101988.75;;;19.73
27986;BMP280;15453;53.692;10.168;2022-10-03T14:54:04;101975.13;;;19.72
27986;BMP280;15453;53.692;10.168;2022-10-03T14:56:41;101969.56;;;19.72
27986;BMP280;15453;53.692;10.168;2022-10-03T14:59:27;101979.84;;;19.71
27986;BMP280;15453;53.692;10.168;2022-10-03T15:01:55;101984.03;;;19.74
27986;BMP280;15453;53.692;10.168;2022-10-03T15:06:56;101987.09;;;19.77
27986;BMP280;15453;53.692;10.168;2022-10-03T15:12:08;101976.50;;;19.79
27986;BMP280;15453;53.692;10.168;2022-10-03T15:14:40;101974.28;;;19.76
27986;BMP280;15453;53.692;10.168;2022-10-03T15:17:33;101969.28;;;19.78
27986;BMP280;15453;53.692;10.168;2022-10-03T15:20:00;101972.63;;;19.75
27986;BMP280;15453;53.692;10.168;2022-10-03T15:22:33;101975.41;;;19.75
27986;BMP280;15453;53.692;10.168;2022-10-03T15:25:11;101970.69;;;19.76
27986;BMP280;15453;53.692;10.168;2022-10-03T15:27:40;101973.47;;;19.71
27986;BMP280;15453;53.692;10.168;2022-10-03T15:32:46;101978.75;;;19.67
27986;BMP280;15453;53.692;10.168;2022-10-03T15:35:30;101967.09;;;19.65
27986;BMP280;15453;53.692;10.168;2022-10-03T15:38:09;101975.41;;;19.60
27986;BMP280;15453;53.692;10.168;2022-10-03T15:40:37;101969.31;;;19.58
27986;BMP280;15453;53.692;10.168;2022-10-03T15:45:58;101976.00;;;19.52
27986;BMP280;15453;53.692;10.168;2022-10-03T15:48:26;101975.44;;;19.50
27986;BMP280;15453;53.692;10.168;2022-10-03T15:50:53;101973.19;;;19.47
27986;BMP280;15453;53.692;10.168;2022-10-03T15:53:30;101977.09;;;19.46
27986;BMP280;15453;53.692;10.168;2022-10-03T15:58:34;101966.25;;;19.45
27986;BMP280;15453;53.692;10.168;2022-10-03T16:01:21;101969.31;;;19.43
27986;BMP280;15453;53.692;10.168;2022-10-03T16:03:51;101966.25;;;19.40
27986;BMP280;15453;53.692;10.168;2022-10-03T16:07:09;101961.25;;;19.37
27986;BMP280;15453;53.692;10.168;2022-10-03T16:09:44;101957.09;;;19.29
27986;BMP280;15453;53.692;10.168;2022-10-03T16:17:42;101956.53;;;19.32
27986;BMP280;15453;53.692;10.168;2022-10-03T16:22:51;101958.75;;;19.25
27986;BMP280;15453;53.692;10.168;2022-10-03T16:25:24;101956.25;;;19.24
27986;BMP280;15453;53.692;10.168;2022-10-03T16:28:03;101963.78;;;19.23
27986;BMP280;15453;53.692;10.168;2022-10-03T16:30:52;101957.34;;;19.18
27986;BMP280;15453;53.692;10.168;2022-10-03T16:33:19;101962.06;;;19.17
27986;BMP280;15453;53.692;10.168;2022-10-03T16:35:49;101956.50;;;19.12
27986;BMP280;15453;53.692;10.168;2022-10-03T16:38:35;101958.72;;;19.10
27986;BMP280;15453;53.692;10.168;2022-10-03T16:41:06;101959.56;;;19.06
27986;BMP280;15453;53.692;10.168;2022-10-03T16:43:36;101962.59;;;19.04
27986;BMP280;15453;53.692;10.168;2022-10-03T16:46:12;101959.56;;;19.01
27986;BMP280;15453;53.692;10.168;2022-10-03T16:48:42;101955.66;;;18.97
27986;BMP280;15453;53.692;10.168;2022-10-03T16:51:34;101963.41;;;18.95
27986;BMP280;15453;53.692;10.168;2022-10-03T16:54:02;101966.19;;;18.90
27986;BMP280;15453;53.692;10.168;2022-10-03T16:56:37;101958.13;;;18.88
27986;BMP280;15453;53.692;10.168;2022-10-03T16:59:12;101960.06;;;18.83
27986;BMP280;15453;53.692;10.168;2022-10-03T17:01:49;101960.06;;;18.83
27986;BMP280;15453;53.692;10.168;2022-10-03T17:04:25;101959.78;;;18.79
27986;BMP280;15453;53.692;10.168;2022-10-03T17:06:58;101957.53;;;18.76
27986;BMP280;15453;53.692;10.168;2022-10-03T17:09:42;101957.53;;;18.76
27986;BMP280;15453;53.692;10.168;2022-10-03T17:12:16;101950.34;;;18.70
27986;BMP280;15453;53.692;10.168;2022-10-03T17:14:42;101960.31;;;18.66
27986;BMP280;15453;53.692;10.168;2022-10-03T17:19:56;101958.91;;;18.59
27986;BMP280;15453;53.692;10.168;2022-10-03T17:22:31;101973.06;;;18.57
27986;BMP280;15453;53.692;10.168;2022-10-03T17:25:04;101978.28;;;18.54
27986;BMP280;15453;53.692;10.168;2022-10-03T17:27:36;101973.84;;;18.53
27986;BMP280;15453;53.692;10.168;2022-10-03T17:35:52;101979.13;;;18.44
27986;BMP280;15453;53.692;10.168;2022-10-03T17:38:35;101979.13;;;18.44
27986;BMP280;15453;53.692;10.168;2022-10-03T17:41:13;101959.66;;;18.39
27986;BMP280;15453;53.692;10.168;2022-10-03T17:46:59;101976.00;;;18.36
27986;BMP280;15453;53.692;10.168;2022-10-03T17:52:04;101971.25;;;18.31
27986;BMP280;15453;53.692;10.168;2022-10-03T17:54:36;101974.59;;;18.33
27986;BMP280;15453;53.692;10.168;2022-10-03T17:57:21;101980.41;;;18.32
27986;BMP280;15453;53.692;10.168;2022-10-03T17:59:59;101971.81;;;18.28
27986;BMP280;15453;53.692;10.168;2022-10-03T18:02:44;101982.03;;;18.28
27986;BMP280;15453;53.692;10.168;2022-10-03T18:05:18;101971.47;;;18.25
27986;BMP280;15453;53.692;10.168;2022-10-03T18:07:44;101979.81;;;18.25
27986;BMP280;15453;53.692;10.168;2022-10-03T18:10:33;101978.13;;;18.24
27986;BMP280;15453;53.692;10.168;2022-10-03T18:13:01;101972.31;;;18.20
27986;BMP280;15453;53.692;10.168;2022-10-03T18:15:38;101977.84;;;18.20
27986;BMP280;15453;53.692;10.168;2022-10-03T18:18:29;101984.22;;;18.21
27986;BMP280;15453;53.692;10.168;2022-10-03T18:21:06;101985.03;;;18.16
27986;BMP280;15453;53.692;10.168;2022-10-03T18:24:09;101988.66;;;18.17
27986;BMP280;15453;53.692;10.168;2022-10-03T18:26:41;101989.72;;;18.11
27986;BMP280;15453;53.692;10.168;2022-10-03T18:29:35;101982.53;;;18.10
27986;BMP280;15453;53.692;10.168;2022-10-03T18:32:13;101989.44;;;18.07
27986;BMP280;15453;53.692;10.168;2022-10-03T18:34:46;101981.91;;;18.03
27986;BMP280;15453;53.692;10.168;2022-10-03T18:39:54;101990.22;;;17.98
27986;BMP280;15453;53.692;10.168;2022-10-03T18:42:25;101990.22;;;17.98
27986;BMP280;15453;53.692;10.168;2022-10-03T18:44:56;101993.50;;;17.95
27986;BMP280;15453;53.692;10.168;2022-10-03T18:47:24;101991.84;;;17.94
27986;BMP280;15453;53.692;10.168;2022-10-03T18:52:48;101991.81;;;17.89
27986;BMP280;15453;53.692;10.168;2022-10-03T18:55:18;101988.72;;;17.85
27986;BMP280;15453;53.692;10.168;2022-10-03T18:58:16;101992.34;;;17.86
27986;BMP280;15453;53.692;10.168;2022-10-03T19:00:50;101993.97;;;17.82
27986;BMP280;15453;53.692;10.168;2022-10-03T19:03:22;101996.75;;;17.82
27986;BMP280;15453;53.692;10.168;2022-10-03T19:05:59;101988.69;;;17.80
27986;BMP280;15453;53.692;10.168;2022-10-03T19:08:36;101992.84;;;17.78
27986;BMP280;15453;53.692;10.168;2022-10-03T19:11:20;101992.28;;;17.76
27986;BMP280;15453;53.692;10.168;2022-10-03T19:13:57;101988.13;;;17.73
27986;BMP280;15453;53.692;10.168;2022-10-03T19:16:41;101990.31;;;17.71
27986;BMP280;15453;53.692;10.168;2022-10-03T19:19:36;101995.28;;;17.69
27986;BMP280;15453;53.692;10.168;2022-10-03T19:22:06;101994.72;;;17.67
27986;BMP280;15453;53.692;10.168;2022-10-03T19:24:34;101993.59;;;17.68
27986;BMP280;15453;53.692;10.168;2022-10-03T19:27:10;102005.25;;;17.65
27986;BMP280;15453;53.692;10.168;2022-10-03T19:29:55;102005.25;;;17.65
27986;BMP280;15453;53.692;10.168;2022-10-03T19:32:27;101998.81;;;17.60
27986;BMP280;15453;53.692;10.168;2022-10-03T19:34:58;101996.84;;;17.60
27986;BMP280;15453;53.692;10.168;2022-10-03T19:39:49;101996.31;;;17.58
27986;BMP280;15453;53.692;10.168;2022-10-03T19:42:28;101998.78;;;17.55
27986;BMP280;15453;53.692;10.168;2022-10-03T19:44:59;102002.63;;;17.54
27986;BMP280;15453;53.692;10.168;2022-10-03T19:47:39;102002.63;;;17.54
27986;BMP280;15453;53.692;10.168;2022-10-03T19:50:20;101996.50;;;17.47
27986;BMP280;15453;53.692;10.168;2022-10-03T19:52:50;101995.66;;;17.46
27986;BMP280;15453;53.692;10.168;2022-10-03T19:55:19;102002.31;;;17.45
27986;BMP280;15453;53.692;10.168;2022-10-03T19:58:00;101998.94;;;17.43
27986;BMP280;15453;53.692;10.168;2022-10-03T20:00:35;101999.72;;;17.39
27986;BMP280;15453;53.692;10.168;2022-10-03T20:03:13;102007.19;;;17.38
27986;BMP280;15453;53.692;10.168;2022-10-03T20:05:49;102017.44;;;17.38
27986;BMP280;15453;53.692;10.168;2022-10-03T20:08:52;102017.44;;;17.38
27986;BMP280;15453;53.692;10.168;2022-10-03T20:11:44;102008.50;;;17.31
27986;BMP280;15453;53.692;10.168;2022-10-03T20:14:17;102011.78;;;17.27
27986;BMP280;15453;53.692;10.168;2022-10-03T20:16:55;102004.06;;;17.30
27986;BMP280;15453;53.692;10.168;2022-10-03T20:19:24;101998.78;;;17.28
27986;BMP280;15453;53.692;10.168;2022-10-03T20:21:52;102000.97;;;17.26
27986;BMP280;15453;53.692;10.168;2022-10-03T20:24:32;101997.41;;;17.26
27986;BMP280;15453;53.692;10.168;2022-10-03T20:27:16;101996.50;;;17.20
27986;BMP280;15453;53.692;10.168;2022-10-03T20:30:05;101991.22;;;17.18
27986;BMP280;15453;53.692;10.168;2022-10-03T20:32:31;101993.44;;;17.17
27986;BMP280;15453;53.692;10.168;2022-10-03T20:34:59;101994.25;;;17.17
27986;BMP280;15453;53.692;10.168;2022-10-03T20:37:43;101990.94;;;17.15
27986;BMP280;15453;53.692;10.168;2022-10-03T20:40:40;101987.28;;;17.09
27986;BMP280;15453;53.692;10.168;2022-10-03T20:46:00;101987.78;;;17.06
27986;BMP280;15453;53.692;10.168;2022-10-03T20:48:32;101991.91;;;17.04
27986;BMP280;15453;53.692;10.168;2022-10-03T20:50:59;101994.94;;;17.02
27986;BMP280;15453;53.692;10.168;2022-10-03T20:53:27;101992.44;;;17.01
27986;BMP280;15453;53.692;10.168;2022-10-03T20:55:59;101988.25;;;16.98
27986;BMP280;15453;53.692;10.168;2022-10-03T20:58:34;101998.19;;;16.94
27986;BMP280;15453;53.692;10.168;2022-10-03T21:01:22;101996.78;;;16.92
27986;BMP280;15453;53.692;10.168;2022-10-03T21:04:02;101991.75;;;16.89
27986;BMP280;15453;53.692;10.168;2022-10-03T21:09:18;101984.81;;;16.86
27986;BMP280;15453;53.692;10.168;2022-10-03T21:11:45;101984.25;;;16.84
27986;BMP280;15453;53.692;10.168;2022-10-03T21:14:19;101985.34;;;16.83
27986;BMP280;15453;53.692;10.168;2022-10-03T21:16:49;101991.41;;;16.80
27986;BMP280;15453;53.692;10.168;2022-10-03T21:19:21;101995.28;;;16.79
27986;BMP280;15453;53.692;10.168;2022-10-03T21:21:50;101998.59;;;16.81
27986;BMP280;15453;53.692;10.168;2022-10-03T21:24:25;101998.59;;;16.81
27986;BMP280;15453;53.692;10.168;2022-10-03T21:26:55;101991.91;;;16.77
27986;BMP280;15453;53.692;10.168;2022-10-03T21:31:56;101995.28;;;16.79
27986;BMP280;15453;53.692;10.168;2022-10-03T21:34:45;101981.34;;;16.74
27986;BMP280;15453;53.692;10.168;2022-10-03T21:37:42;101985.72;;;16.70
27986;BMP280;15453;53.692;10.168;2022-10-03T21:43:19;101985.44;;;16.67
27986;BMP280;15453;53.692;10.168;2022-10-03T21:49:02;101990.06;;;16.61
27986;BMP280;15453;53.692;10.168;2022-10-03T21:59:27;101990.00;;;16.56
27986;BMP280;15453;53.692;10.168;2022-10-03T22:02:23;101981.66;;;16.51
27986;BMP280;15453;53.692;10.168;2022-10-03T22:04:57;101981.66;;;16.51
27986;BMP280;15453;53.692;10.168;2022-10-03T22:07:35;101976.38;;;16.50
27986;BMP280;15453;53.692;10.168;2022-10-03T22:10:03;101969.19;;;16.49
27986;BMP280;15453;53.692;10.168;2022-10-03T22:12:30;101966.16;;;16.50
27986;BMP280;15453;53.692;10.168;2022-10-03T22:15:05;101966.72;;;16.52
27986;BMP280;15453;53.692;10.168;2022-10-03T22:17:59;101971.16;;;16.53
27986;BMP280;15453;53.692;10.168;2022-10-03T22:20:30;101973.16;;;16.58
27986;BMP280;15453;53.692;10.168;2022-10-03T22:23:21;101973.16;;;16.58
27986;BMP280;15453;53.692;10.168;2022-10-03T22:26:12;101963.44;;;16.55
27986;BMP280;15453;53.692;10.168;2022-10-03T22:28:53;101960.69;;;16.55
27986;BMP280;15453;53.692;10.168;2022-10-03T22:31:42;101966.78;;;16.57
27986;BMP280;15453;53.692;10.168;2022-10-03T22:34:40;101956.56;;;16.58
27986;BMP280;15453;53.692;10.168;2022-10-03T22:37:11;101952.38;;;16.55
27986;BMP280;15453;53.692;10.168;2022-10-03T22:39:36;101956.34;;;16.64
27986;BMP280;15453;53.692;10.168;2022-10-03T22:42:03;101961.88;;;16.64